sensor_id;sensor_type;location;lat;lon;timestamp;temperature;humidity
13426;DHT22;6785;57.918;12.530;2023-07-13T00:00:09;13.50;99.90
13426;DHT22;6785;57.918;12.530;2023-07-13T00:02:37;13.40;99.90
13426;DHT22;6785;57.918;12.530;2023-07-13T00:05:05;13.40;99.90
13426;DHT22;6785;57.918;12.530;2023-07-13T00:07:34;13.30;99.90
13426;DHT22;6785;57.918;12.530;2023-07-13T00:10:00;13.30;99.90
13426;DHT22;6785;57.918;12.530;2023-07-13T00:12:30;13.30;99.90
13426;DHT22;6785;57.918;12.530;2023-07-13T00:14:57;13.30;99.90
13426;DHT22;6785;57.918;12.530;2023-07-13T00:17:25;13.30;99.90
13426;DHT22;6785;57.918;12.530;2023-07-13T00:19:53;13.30;99.90
13426;DHT22;6785;57.918;12.530;2023-07-13T00:22:21;13.30;99.90
13426;DHT22;6785;57.918;12.530;2023-07-13T00:24:52;13.20;99.90
13426;DHT22;6785;57.918;12.530;2023-07-13T00:27:21;13.20;99.90
13426;DHT22;6785;57.918;12.530;2023-07-13T00:29:47;13.20;99.90
13426;DHT22;6785;57.918;12.530;2023-07-13T00:32:14;13.20;99.90
13426;DHT22;6785;57.918;12.530;2023-07-13T00:34:41;13.20;99.90
13426;DHT22;6785;57.918;12.530;2023-07-13T00:37:08;13.30;99.90
13426;DHT22;6785;57.918;12.530;2023-07-13T00:39:35;13.20;99.90
13426;DHT22;6785;57.918;12.530;2023-07-13T00:42:03;13.20;99.90
13426;DHT22;6785;57.918;12.530;2023-07-13T00:44:30;13.20;99.90
13426;DHT22;6785;57.918;12.530;2023-07-13T00:46:57;13.20;99.90
13426;DHT22;6785;57.918;12.530;2023-07-13T00:49:26;13.20;99.90
13426;DHT22;6785;57.918;12.530;2023-07-13T00:51:55;13.20;99.90
13426;DHT22;6785;57.918;12.530;2023-07-13T00:54:26;13.30;99.90
13426;DHT22;6785;57.918;12.530;2023-07-13T00:56:57;13.30;99.90
13426;DHT22;6785;57.918;12.530;2023-07-13T00:59:27;13.30;99.90
13426;DHT22;6785;57.918;12.530;2023-07-13T01:01:54;13.30;99.90
13426;DHT22;6785;57.918;12.530;2023-07-13T01:04:23;13.30;99.90
13426;DHT22;6785;57.918;12.530;2023-07-13T01:06:50;13.30;99.90
13426;DHT22;6785;57.918;12.530;2023-07-13T01:09:17;13.30;99.90
13426;DHT22;6785;57.918;12.530;2023-07-13T01:11:44;13.30;99.90
13426;DHT22;6785;57.918;12.530;2023-07-13T01:14:11;13.30;99.90
13426;DHT22;6785;57.918;12.530;2023-07-13T01:16:42;13.30;99.90
13426;DHT22;6785;57.918;12.530;2023-07-13T01:19:20;13.40;99.90
13426;DHT22;6785;57.918;12.530;2023-07-13T01:21:52;13.40;99.90
13426;DHT22;6785;57.918;12.530;2023-07-13T01:24:19;13.40;99.90
13426;DHT22;6785;57.918;12.530;2023-07-13T01:26:46;13.40;99.90
13426;DHT22;6785;57.918;12.530;2023-07-13T01:29:13;13.40;99.90
13426;DHT22;6785;57.918;12.530;2023-07-13T01:31:39;13.40;99.90
13426;DHT22;6785;57.918;12.530;2023-07-13T01:34:06;13.40;99.90
13426;DHT22;6785;57.918;12.530;2023-07-13T01:36:33;13.40;99.90
13426;DHT22;6785;57.918;12.530;2023-07-13T01:39:03;13.30;99.90
13426;DHT22;6785;57.918;12.530;2023-07-13T01:41:30;13.30;99.90
13426;DHT22;6785;57.918;12.530;2023-07-13T01:43:57;13.30;99.90
13426;DHT22;6785;57.918;12.530;2023-07-13T01:46:23;13.30;99.90
13426;DHT22;6785;57.918;12.530;2023-07-13T01:48:50;13.30;99.90
13426;DHT22;6785;57.918;12.530;2023-07-13T01:51:18;13.30;99.90
13426;DHT22;6785;57.918;12.530;2023-07-13T01:53:45;13.30;99.90
13426;DHT22;6785;57.918;12.530;2023-07-13T01:56:13;13.30;99.90
13426;DHT22;6785;57.918;12.530;2023-07-13T01:58:40;13.20;99.90
13426;DHT22;6785;57.918;12.530;2023-07-13T02:01:07;13.30;99.90
13426;DHT22;6785;57.918;12.530;2023-07-13T02:03:36;13.30;99.90
13426;DHT22;6785;57.918;12.530;2023-07-13T02:06:03;13.30;99.90
13426;DHT22;6785;57.918;12.530;2023-07-13T02:08:31;13.20;99.90
13426;DHT22;6785;57.918;12.530;2023-07-13T02:10:58;13.20;99.90
13426;DHT22;6785;57.918;12.530;2023-07-13T02:13:26;13.20;99.90
13426;DHT22;6785;57.918;12.530;2023-07-13T02:15:53;13.20;99.90
13426;DHT22;6785;57.918;12.530;2023-07-13T02:18:20;13.20;99.90
13426;DHT22;6785;57.918;12.530;2023-07-13T02:20:47;13.20;99.90
13426;DHT22;6785;57.918;12.530;2023-07-13T02:23:13;13.30;99.90
13426;DHT22;6785;57.918;12.530;2023-07-13T02:25:40;13.20;99.90
13426;DHT22;6785;57.918;12.530;2023-07-13T02:28:07;13.20;99.90
13426;DHT22;6785;57.918;12.530;2023-07-13T02:30:35;13.30;99.90
13426;DHT22;6785;57.918;12.530;2023-07-13T02:33:03;13.30;99.90
13426;DHT22;6785;57.918;12.530;2023-07-13T02:35:30;13.30;99.90
13426;DHT22;6785;57.918;12.530;2023-07-13T02:37:57;13.40;99.90
13426;DHT22;6785;57.918;12.530;2023-07-13T02:40:24;13.40;99.90
13426;DHT22;6785;57.918;12.530;2023-07-13T02:42:51;13.40;99.90
13426;DHT22;6785;57.918;12.530;2023-07-13T02:45:18;13.50;99.90
13426;DHT22;6785;57.918;12.530;2023-07-13T02:47:46;13.50;99.90
13426;DHT22;6785;57.918;12.530;2023-07-13T02:50:12;13.60;99.90
13426;DHT22;6785;57.918;12.530;2023-07-13T02:52:39;13.60;99.90
13426;DHT22;6785;57.918;12.530;2023-07-13T02:55:06;13.60;99.90
13426;DHT22;6785;57.918;12.530;2023-07-13T02:57:33;13.70;99.90
13426;DHT22;6785;57.918;12.530;2023-07-13T03:00:00;13.70;99.90
13426;DHT22;6785;57.918;12.530;2023-07-13T03:02:26;13.70;99.90
13426;DHT22;6785;57.918;12.530;2023-07-13T03:04:55;13.80;99.90
13426;DHT22;6785;57.918;12.530;2023-07-13T03:07:21;13.80;99.90
13426;DHT22;6785;57.918;12.530;2023-07-13T03:09:48;13.70;99.90
13426;DHT22;6785;57.918;12.530;2023-07-13T03:12:15;13.80;99.90
13426;DHT22;6785;57.918;12.530;2023-07-13T03:14:42;13.90;99.90
13426;DHT22;6785;57.918;12.530;2023-07-13T03:17:09;13.80;99.90
13426;DHT22;6785;57.918;12.530;2023-07-13T03:19:36;13.90;99.90
13426;DHT22;6785;57.918;12.530;2023-07-13T03:22:05;13.90;99.90
13426;DHT22;6785;57.918;12.530;2023-07-13T03:24:32;13.90;99.90
13426;DHT22;6785;57.918;12.530;2023-07-13T03:27:00;13.90;99.90
13426;DHT22;6785;57.918;12.530;2023-07-13T03:29:27;13.90;99.90
13426;DHT22;6785;57.918;12.530;2023-07-13T03:31:54;13.90;99.90
13426;DHT22;6785;57.918;12.530;2023-07-13T03:34:21;13.90;99.90
13426;DHT22;6785;57.918;12.530;2023-07-13T03:36:47;13.80;99.90
13426;DHT22;6785;57.918;12.530;2023-07-13T03:39:15;13.80;99.90
13426;DHT22;6785;57.918;12.530;2023-07-13T03:41:42;13.80;99.90
13426;DHT22;6785;57.918;12.530;2023-07-13T03:44:09;13.80;99.90
13426;DHT22;6785;57.918;12.530;2023-07-13T03:46:36;13.80;99.90
13426;DHT22;6785;57.918;12.530;2023-07-13T03:49:04;13.80;99.90
13426;DHT22;6785;57.918;12.530;2023-07-13T03:51:31;13.90;99.90
13426;DHT22;6785;57.918;12.530;2023-07-13T03:53:57;14.00;99.90
13426;DHT22;6785;57.918;12.530;2023-07-13T03:56:25;14.00;99.90
13426;DHT22;6785;57.918;12.530;2023-07-13T03:58:53;14.10;99.90
13426;DHT22;6785;57.918;12.530;2023-07-13T04:01:21;14.20;99.90
13426;DHT22;6785;57.918;12.530;2023-07-13T04:03:48;14.20;99.90
13426;DHT22;6785;57.918;12.530;2023-07-13T04:06:17;14.40;99.90
13426;DHT22;6785;57.918;12.530;2023-07-13T04:08:47;14.40;99.90
13426;DHT22;6785;57.918;12.530;2023-07-13T04:11:16;14.40;99.90
13426;DHT22;6785;57.918;12.530;2023-07-13T04:13:44;14.40;99.90
13426;DHT22;6785;57.918;12.530;2023-07-13T04:16:11;14.40;99.90
13426;DHT22;6785;57.918;12.530;2023-07-13T04:18:38;14.40;99.90
13426;DHT22;6785;57.918;12.530;2023-07-13T04:21:05;14.40;99.90
13426;DHT22;6785;57.918;12.530;2023-07-13T04:23:31;14.40;99.90
13426;DHT22;6785;57.918;12.530;2023-07-13T04:25:58;14.40;99.90
13426;DHT22;6785;57.918;12.530;2023-07-13T04:28:25;14.40;99.90
13426;DHT22;6785;57.918;12.530;2023-07-13T04:30:54;14.50;99.90
13426;DHT22;6785;57.918;12.530;2023-07-13T04:33:23;14.50;99.90
13426;DHT22;6785;57.918;12.530;2023-07-13T04:35:50;14.60;99.90
13426;DHT22;6785;57.918;12.530;2023-07-13T04:38:22;14.60;99.90
13426;DHT22;6785;57.918;12.530;2023-07-13T04:40:50;14.70;99.90
13426;DHT22;6785;57.918;12.530;2023-07-13T04:43:17;14.70;99.90
13426;DHT22;6785;57.918;12.530;2023-07-13T04:45:45;14.80;99.90
13426;DHT22;6785;57.918;12.530;2023-07-13T04:48:13;14.80;99.90
13426;DHT22;6785;57.918;12.530;2023-07-13T04:50:40;14.90;99.90
13426;DHT22;6785;57.918;12.530;2023-07-13T04:53:06;15.00;99.90
13426;DHT22;6785;57.918;12.530;2023-07-13T04:55:33;15.20;99.90
13426;DHT22;6785;57.918;12.530;2023-07-13T04:58:00;15.30;99.90
13426;DHT22;6785;57.918;12.530;2023-07-13T05:00:28;15.40;99.90
13426;DHT22;6785;57.918;12.530;2023-07-13T05:02:56;15.50;99.90
13426;DHT22;6785;57.918;12.530;2023-07-13T05:05:26;15.60;99.90
13426;DHT22;6785;57.918;12.530;2023-07-13T05:07:53;15.60;99.90
13426;DHT22;6785;57.918;12.530;2023-07-13T05:10:20;15.70;99.90
13426;DHT22;6785;57.918;12.530;2023-07-13T05:12:46;15.90;99.90
13426;DHT22;6785;57.918;12.530;2023-07-13T05:15:13;16.00;99.90
13426;DHT22;6785;57.918;12.530;2023-07-13T05:17:40;16.10;99.90
13426;DHT22;6785;57.918;12.530;2023-07-13T05:20:08;16.30;99.90
13426;DHT22;6785;57.918;12.530;2023-07-13T05:22:36;16.30;99.90
13426;DHT22;6785;57.918;12.530;2023-07-13T05:25:05;16.40;99.90
13426;DHT22;6785;57.918;12.530;2023-07-13T05:27:33;16.20;99.90
13426;DHT22;6785;57.918;12.530;2023-07-13T05:30:00;16.20;99.90
13426;DHT22;6785;57.918;12.530;2023-07-13T05:32:27;16.20;99.90
13426;DHT22;6785;57.918;12.530;2023-07-13T05:34:54;16.30;99.90
13426;DHT22;6785;57.918;12.530;2023-07-13T05:37:21;16.40;99.90
13426;DHT22;6785;57.918;12.530;2023-07-13T05:39:49;16.30;99.90
13426;DHT22;6785;57.918;12.530;2023-07-13T05:42:15;16.40;99.90
13426;DHT22;6785;57.918;12.530;2023-07-13T05:44:42;16.30;99.90
13426;DHT22;6785;57.918;12.530;2023-07-13T05:47:09;16.20;99.90
13426;DHT22;6785;57.918;12.530;2023-07-13T05:49:36;16.30;99.90
13426;DHT22;6785;57.918;12.530;2023-07-13T05:52:03;16.40;99.90
13426;DHT22;6785;57.918;12.530;2023-07-13T05:54:30;16.40;99.90
13426;DHT22;6785;57.918;12.530;2023-07-13T05:56:58;16.50;99.90
13426;DHT22;6785;57.918;12.530;2023-07-13T05:59:25;16.60;99.90
13426;DHT22;6785;57.918;12.530;2023-07-13T06:01:51;16.60;99.90
13426;DHT22;6785;57.918;12.530;2023-07-13T06:04:18;16.60;99.90
13426;DHT22;6785;57.918;12.530;2023-07-13T06:06:45;16.60;99.90
13426;DHT22;6785;57.918;12.530;2023-07-13T06:09:12;16.80;99.90
13426;DHT22;6785;57.918;12.530;2023-07-13T06:11:38;16.90;99.90
13426;DHT22;6785;57.918;12.530;2023-07-13T06:14:06;17.00;99.90
13426;DHT22;6785;57.918;12.530;2023-07-13T06:16:33;17.30;99.90
13426;DHT22;6785;57.918;12.530;2023-07-13T06:19:00;17.30;99.90
13426;DHT22;6785;57.918;12.530;2023-07-13T06:21:27;17.40;99.90
13426;DHT22;6785;57.918;12.530;2023-07-13T06:23:54;17.50;99.90
13426;DHT22;6785;57.918;12.530;2023-07-13T06:26:21;17.60;99.90
13426;DHT22;6785;57.918;12.530;2023-07-13T06:28:48;17.70;99.90
13426;DHT22;6785;57.918;12.530;2023-07-13T06:31:16;17.90;99.90
13426;DHT22;6785;57.918;12.530;2023-07-13T06:33:43;18.00;99.90
13426;DHT22;6785;57.918;12.530;2023-07-13T06:36:10;18.30;99.90
13426;DHT22;6785;57.918;12.530;2023-07-13T06:38:37;18.40;99.90
13426;DHT22;6785;57.918;12.530;2023-07-13T06:41:05;18.40;99.90
13426;DHT22;6785;57.918;12.530;2023-07-13T06:43:32;18.30;99.90
13426;DHT22;6785;57.918;12.530;2023-07-13T06:45:59;18.10;99.90
13426;DHT22;6785;57.918;12.530;2023-07-13T06:48:28;18.00;99.90
13426;DHT22;6785;57.918;12.530;2023-07-13T06:50:54;17.90;99.90
13426;DHT22;6785;57.918;12.530;2023-07-13T06:53:21;17.90;99.90
13426;DHT22;6785;57.918;12.530;2023-07-13T06:55:49;18.10;99.90
13426;DHT22;6785;57.918;12.530;2023-07-13T06:58:17;18.50;99.90
13426;DHT22;6785;57.918;12.530;2023-07-13T07:00:45;18.80;99.90
13426;DHT22;6785;57.918;12.530;2023-07-13T07:03:12;18.80;99.90
13426;DHT22;6785;57.918;12.530;2023-07-13T07:05:40;18.70;99.90
13426;DHT22;6785;57.918;12.530;2023-07-13T07:08:07;18.60;99.90
13426;DHT22;6785;57.918;12.530;2023-07-13T07:10:34;18.10;99.90
13426;DHT22;6785;57.918;12.530;2023-07-13T07:13:02;17.90;99.90
13426;DHT22;6785;57.918;12.530;2023-07-13T07:15:29;17.80;99.90
13426;DHT22;6785;57.918;12.530;2023-07-13T07:17:56;17.70;99.90
13426;DHT22;6785;57.918;12.530;2023-07-13T07:20:22;17.70;99.90
13426;DHT22;6785;57.918;12.530;2023-07-13T07:22:50;17.40;99.90
13426;DHT22;6785;57.918;12.530;2023-07-13T07:25:17;17.40;99.90
13426;DHT22;6785;57.918;12.530;2023-07-13T07:27:44;17.50;99.90
13426;DHT22;6785;57.918;12.530;2023-07-13T07:30:12;17.40;99.90
13426;DHT22;6785;57.918;12.530;2023-07-13T07:32:39;17.50;99.90
13426;DHT22;6785;57.918;12.530;2023-07-13T07:35:07;17.40;99.90
13426;DHT22;6785;57.918;12.530;2023-07-13T07:37:34;17.30;99.90
13426;DHT22;6785;57.918;12.530;2023-07-13T07:40:02;17.20;99.90
13426;DHT22;6785;57.918;12.530;2023-07-13T07:42:29;17.10;99.90
13426;DHT22;6785;57.918;12.530;2023-07-13T07:44:56;17.20;99.90
13426;DHT22;6785;57.918;12.530;2023-07-13T07:47:22;17.10;99.90
13426;DHT22;6785;57.918;12.530;2023-07-13T07:49:49;17.20;99.90
13426;DHT22;6785;57.918;12.530;2023-07-13T07:52:16;17.20;99.90
13426;DHT22;6785;57.918;12.530;2023-07-13T07:54:43;17.20;99.90
13426;DHT22;6785;57.918;12.530;2023-07-13T07:57:11;17.00;99.90
13426;DHT22;6785;57.918;12.530;2023-07-13T07:59:37;17.00;99.90
13426;DHT22;6785;57.918;12.530;2023-07-13T08:02:05;16.90;99.90
13426;DHT22;6785;57.918;12.530;2023-07-13T08:04:32;16.90;99.90
13426;DHT22;6785;57.918;12.530;2023-07-13T08:06:58;16.90;99.90
13426;DHT22;6785;57.918;12.530;2023-07-13T08:09:28;16.80;99.90
13426;DHT22;6785;57.918;12.530;2023-07-13T08:11:54;16.80;99.90
13426;DHT22;6785;57.918;12.530;2023-07-13T08:14:23;16.90;99.90
13426;DHT22;6785;57.918;12.530;2023-07-13T08:16:49;17.00;99.90
13426;DHT22;6785;57.918;12.530;2023-07-13T08:19:16;17.00;99.90
13426;DHT22;6785;57.918;12.530;2023-07-13T08:21:43;17.00;99.90
13426;DHT22;6785;57.918;12.530;2023-07-13T08:24:10;17.10;99.90
13426;DHT22;6785;57.918;12.530;2023-07-13T08:26:36;17.10;99.90
13426;DHT22;6785;57.918;12.530;2023-07-13T08:29:03;17.40;99.90
13426;DHT22;6785;57.918;12.530;2023-07-13T08:31:31;17.50;99.90
13426;DHT22;6785;57.918;12.530;2023-07-13T08:33:58;17.50;99.90
13426;DHT22;6785;57.918;12.530;2023-07-13T08:36:25;17.60;99.90
13426;DHT22;6785;57.918;12.530;2023-07-13T08:38:52;17.60;99.90
13426;DHT22;6785;57.918;12.530;2023-07-13T08:41:19;17.70;99.90
13426;DHT22;6785;57.918;12.530;2023-07-13T08:43:50;18.10;99.90
13426;DHT22;6785;57.918;12.530;2023-07-13T08:46:21;18.40;99.90
13426;DHT22;6785;57.918;12.530;2023-07-13T08:48:53;18.70;99.90
13426;DHT22;6785;57.918;12.530;2023-07-13T08:51:36;19.10;99.90
13426;DHT22;6785;57.918;12.530;2023-07-13T08:54:11;19.20;99.90
13426;DHT22;6785;57.918;12.530;2023-07-13T08:56:43;19.30;99.90
13426;DHT22;6785;57.918;12.530;2023-07-13T08:59:13;19.10;99.90
13426;DHT22;6785;57.918;12.530;2023-07-13T09:02:05;19.20;99.90
13426;DHT22;6785;57.918;12.530;2023-07-13T09:04:40;19.30;99.90
13426;DHT22;6785;57.918;12.530;2023-07-13T09:07:16;19.20;99.90
13426;DHT22;6785;57.918;12.530;2023-07-13T09:09:59;19.00;99.90
13426;DHT22;6785;57.918;12.530;2023-07-13T09:12:36;19.20;99.90
13426;DHT22;6785;57.918;12.530;2023-07-13T09:15:20;19.30;99.90
13426;DHT22;6785;57.918;12.530;2023-07-13T09:17:50;19.20;99.90
13426;DHT22;6785;57.918;12.530;2023-07-13T09:20:23;18.90;99.90
13426;DHT22;6785;57.918;12.530;2023-07-13T09:22:52;18.50;99.90
13426;DHT22;6785;57.918;12.530;2023-07-13T09:25:31;18.50;99.90
13426;DHT22;6785;57.918;12.530;2023-07-13T09:28:04;18.40;99.90
13426;DHT22;6785;57.918;12.530;2023-07-13T09:30:45;18.70;99.90
13426;DHT22;6785;57.918;12.530;2023-07-13T09:33:13;18.90;99.90
13426;DHT22;6785;57.918;12.530;2023-07-13T09:35:42;18.80;99.90
13426;DHT22;6785;57.918;12.530;2023-07-13T09:38:13;18.70;99.90
13426;DHT22;6785;57.918;12.530;2023-07-13T09:40:48;18.80;99.90
13426;DHT22;6785;57.918;12.530;2023-07-13T09:43:18;18.60;99.90
13426;DHT22;6785;57.918;12.530;2023-07-13T09:45:47;18.60;99.90
13426;DHT22;6785;57.918;12.530;2023-07-13T09:48:15;18.70;99.90
13426;DHT22;6785;57.918;12.530;2023-07-13T09:50:44;18.60;99.90
13426;DHT22;6785;57.918;12.530;2023-07-13T09:53:12;18.50;99.90
13426;DHT22;6785;57.918;12.530;2023-07-13T09:55:41;18.40;99.90
13426;DHT22;6785;57.918;12.530;2023-07-13T09:58:11;18.20;99.90
13426;DHT22;6785;57.918;12.530;2023-07-13T10:00:38;18.10;99.90
13426;DHT22;6785;57.918;12.530;2023-07-13T10:03:16;18.10;99.90
13426;DHT22;6785;57.918;12.530;2023-07-13T10:05:46;18.00;99.90
13426;DHT22;6785;57.918;12.530;2023-07-13T10:08:25;18.00;99.90
13426;DHT22;6785;57.918;12.530;2023-07-13T10:10:58;18.00;99.90
13426;DHT22;6785;57.918;12.530;2023-07-13T10:13:32;18.00;99.90
13426;DHT22;6785;57.918;12.530;2023-07-13T10:16:04;18.20;99.90
13426;DHT22;6785;57.918;12.530;2023-07-13T10:18:37;18.40;99.90
13426;DHT22;6785;57.918;12.530;2023-07-13T10:21:13;18.50;99.90
13426;DHT22;6785;57.918;12.530;2023-07-13T10:23:41;18.30;99.90
13426;DHT22;6785;57.918;12.530;2023-07-13T10:26:13;18.10;99.90
13426;DHT22;6785;57.918;12.530;2023-07-13T10:28:42;17.80;99.90
13426;DHT22;6785;57.918;12.530;2023-07-13T10:31:12;17.70;99.90
13426;DHT22;6785;57.918;12.530;2023-07-13T10:33:39;17.70;99.90
13426;DHT22;6785;57.918;12.530;2023-07-13T10:36:13;17.90;99.90
13426;DHT22;6785;57.918;12.530;2023-07-13T10:38:41;18.30;99.90
13426;DHT22;6785;57.918;12.530;2023-07-13T10:41:12;18.80;99.90
13426;DHT22;6785;57.918;12.530;2023-07-13T10:43:44;19.20;99.90
13426;DHT22;6785;57.918;12.530;2023-07-13T10:46:14;19.40;99.90
13426;DHT22;6785;57.918;12.530;2023-07-13T10:48:44;19.50;99.90
13426;DHT22;6785;57.918;12.530;2023-07-13T10:51:14;19.60;99.90
13426;DHT22;6785;57.918;12.530;2023-07-13T10:53:42;19.70;99.90
13426;DHT22;6785;57.918;12.530;2023-07-13T10:56:22;19.70;99.90
13426;DHT22;6785;57.918;12.530;2023-07-13T10:59:02;19.90;99.90
13426;DHT22;6785;57.918;12.530;2023-07-13T11:01:40;19.80;99.90
13426;DHT22;6785;57.918;12.530;2023-07-13T11:04:12;19.90;99.90
13426;DHT22;6785;57.918;12.530;2023-07-13T11:06:43;20.00;99.90
13426;DHT22;6785;57.918;12.530;2023-07-13T11:09:35;19.80;99.90
13426;DHT22;6785;57.918;12.530;2023-07-13T11:12:07;19.60;99.90
13426;DHT22;6785;57.918;12.530;2023-07-13T11:14:36;19.40;99.90
13426;DHT22;6785;57.918;12.530;2023-07-13T11:17:35;19.10;99.90
13426;DHT22;6785;57.918;12.530;2023-07-13T11:20:21;18.90;99.90
13426;DHT22;6785;57.918;12.530;2023-07-13T11:22:52;19.10;99.90
13426;DHT22;6785;57.918;12.530;2023-07-13T11:25:27;19.40;99.90
13426;DHT22;6785;57.918;12.530;2023-07-13T11:28:13;19.80;99.90
13426;DHT22;6785;57.918;12.530;2023-07-13T11:30:44;20.10;99.90
13426;DHT22;6785;57.918;12.530;2023-07-13T11:33:17;20.40;99.90
13426;DHT22;6785;57.918;12.530;2023-07-13T11:35:53;20.70;99.90
13426;DHT22;6785;57.918;12.530;2023-07-13T11:38:30;20.70;99.90
13426;DHT22;6785;57.918;12.530;2023-07-13T11:41:01;20.90;99.90
13426;DHT22;6785;57.918;12.530;2023-07-13T11:43:30;20.80;99.90
13426;DHT22;6785;57.918;12.530;2023-07-13T11:46:00;20.90;99.90
13426;DHT22;6785;57.918;12.530;2023-07-13T11:48:38;20.70;99.90
13426;DHT22;6785;57.918;12.530;2023-07-13T11:51:06;20.70;99.90
13426;DHT22;6785;57.918;12.530;2023-07-13T11:53:39;20.90;99.90
13426;DHT22;6785;57.918;12.530;2023-07-13T11:56:07;20.90;99.90
13426;DHT22;6785;57.918;12.530;2023-07-13T11:58:34;20.80;99.90
13426;DHT22;6785;57.918;12.530;2023-07-13T12:01:02;20.60;99.90
13426;DHT22;6785;57.918;12.530;2023-07-13T12:03:31;20.20;99.90
13426;DHT22;6785;57.918;12.530;2023-07-13T12:06:01;20.20;99.90
13426;DHT22;6785;57.918;12.530;2023-07-13T12:08:29;20.50;99.90
13426;DHT22;6785;57.918;12.530;2023-07-13T12:11:04;20.40;99.90
13426;DHT22;6785;57.918;12.530;2023-07-13T12:13:36;20.20;99.90
13426;DHT22;6785;57.918;12.530;2023-07-13T12:16:12;19.90;99.90
13426;DHT22;6785;57.918;12.530;2023-07-13T12:18:42;19.80;99.90
13426;DHT22;6785;57.918;12.530;2023-07-13T12:21:14;19.70;99.90
13426;DHT22;6785;57.918;12.530;2023-07-13T12:23:43;19.50;99.90
13426;DHT22;6785;57.918;12.530;2023-07-13T12:26:12;19.50;99.90
13426;DHT22;6785;57.918;12.530;2023-07-13T12:28:45;19.60;99.90
13426;DHT22;6785;57.918;12.530;2023-07-13T12:31:25;19.70;99.90
13426;DHT22;6785;57.918;12.530;2023-07-13T12:33:57;19.80;99.90
13426;DHT22;6785;57.918;12.530;2023-07-13T12:36:25;19.60;99.90
13426;DHT22;6785;57.918;12.530;2023-07-13T12:38:52;19.50;99.90
13426;DHT22;6785;57.918;12.530;2023-07-13T12:41:20;19.60;99.90
13426;DHT22;6785;57.918;12.530;2023-07-13T12:43:48;19.80;99.90
13426;DHT22;6785;57.918;12.530;2023-07-13T12:46:18;20.20;99.90
13426;DHT22;6785;57.918;12.530;2023-07-13T12:48:48;20.40;99.90
13426;DHT22;6785;57.918;12.530;2023-07-13T12:51:16;20.70;99.90
13426;DHT22;6785;57.918;12.530;2023-07-13T12:53:48;20.60;99.90
13426;DHT22;6785;57.918;12.530;2023-07-13T12:56:19;20.50;99.90
13426;DHT22;6785;57.918;12.530;2023-07-13T12:58:50;20.50;99.90
13426;DHT22;6785;57.918;12.530;2023-07-13T13:01:21;20.40;99.90
13426;DHT22;6785;57.918;12.530;2023-07-13T13:03:50;20.20;99.90
13426;DHT22;6785;57.918;12.530;2023-07-13T13:06:22;20.00;99.90
13426;DHT22;6785;57.918;12.530;2023-07-13T13:08:51;19.90;99.90
13426;DHT22;6785;57.918;12.530;2023-07-13T13:11:19;19.80;99.90
13426;DHT22;6785;57.918;12.530;2023-07-13T13:13:46;20.10;99.90
13426;DHT22;6785;57.918;12.530;2023-07-13T13:16:23;20.50;99.90
13426;DHT22;6785;57.918;12.530;2023-07-13T13:18:52;20.60;99.90
13426;DHT22;6785;57.918;12.530;2023-07-13T13:21:21;20.50;99.90
13426;DHT22;6785;57.918;12.530;2023-07-13T13:23:48;20.40;99.90
13426;DHT22;6785;57.918;12.530;2023-07-13T13:26:23;20.00;99.90
13426;DHT22;6785;57.918;12.530;2023-07-13T13:28:50;19.80;99.90
13426;DHT22;6785;57.918;12.530;2023-07-13T13:31:18;19.30;99.90
13426;DHT22;6785;57.918;12.530;2023-07-13T13:33:46;19.10;99.90
13426;DHT22;6785;57.918;12.530;2023-07-13T13:36:18;18.80;99.90
13426;DHT22;6785;57.918;12.530;2023-07-13T13:38:45;18.50;99.90
13426;DHT22;6785;57.918;12.530;2023-07-13T13:41:13;18.40;99.90
13426;DHT22;6785;57.918;12.530;2023-07-13T13:43:41;18.10;99.90
13426;DHT22;6785;57.918;12.530;2023-07-13T13:46:15;18.10;99.90
13426;DHT22;6785;57.918;12.530;2023-07-13T13:48:44;17.80;99.90
13426;DHT22;6785;57.918;12.530;2023-07-13T13:51:16;17.70;99.90
13426;DHT22;6785;57.918;12.530;2023-07-13T13:53:43;17.40;99.90
13426;DHT22;6785;57.918;12.530;2023-07-13T13:56:10;17.30;99.90
13426;DHT22;6785;57.918;12.530;2023-07-13T13:58:37;17.10;99.90
13426;DHT22;6785;57.918;12.530;2023-07-13T14:01:04;17.20;99.90
13426;DHT22;6785;57.918;12.530;2023-07-13T14:03:34;17.40;99.90
13426;DHT22;6785;57.918;12.530;2023-07-13T14:06:02;17.50;99.90
13426;DHT22;6785;57.918;12.530;2023-07-13T14:08:29;17.60;99.90
13426;DHT22;6785;57.918;12.530;2023-07-13T14:10:57;17.60;99.90
13426;DHT22;6785;57.918;12.530;2023-07-13T14:13:27;17.60;99.90
13426;DHT22;6785;57.918;12.530;2023-07-13T14:15:54;17.60;99.90
13426;DHT22;6785;57.918;12.530;2023-07-13T14:18:21;17.60;99.90
13426;DHT22;6785;57.918;12.530;2023-07-13T14:20:49;17.50;99.90
13426;DHT22;6785;57.918;12.530;2023-07-13T14:23:18;17.60;99.90
13426;DHT22;6785;57.918;12.530;2023-07-13T14:25:46;17.60;99.90
13426;DHT22;6785;57.918;12.530;2023-07-13T14:28:21;17.80;99.90
13426;DHT22;6785;57.918;12.530;2023-07-13T14:30:49;17.90;99.90
13426;DHT22;6785;57.918;12.530;2023-07-13T14:33:16;18.10;99.90
13426;DHT22;6785;57.918;12.530;2023-07-13T14:35:43;18.20;99.90
13426;DHT22;6785;57.918;12.530;2023-07-13T14:38:12;18.40;99.90
13426;DHT22;6785;57.918;12.530;2023-07-13T14:40:41;18.40;99.90
13426;DHT22;6785;57.918;12.530;2023-07-13T14:43:10;18.40;99.90
13426;DHT22;6785;57.918;12.530;2023-07-13T14:45:40;18.50;99.90
13426;DHT22;6785;57.918;12.530;2023-07-13T14:48:14;18.70;99.90
13426;DHT22;6785;57.918;12.530;2023-07-13T14:50:42;18.80;99.90
13426;DHT22;6785;57.918;12.530;2023-07-13T14:53:10;19.00;99.90
13426;DHT22;6785;57.918;12.530;2023-07-13T14:55:37;19.00;99.90
13426;DHT22;6785;57.918;12.530;2023-07-13T14:58:06;18.80;99.90
13426;DHT22;6785;57.918;12.530;2023-07-13T15:00:33;18.90;99.90
13426;DHT22;6785;57.918;12.530;2023-07-13T15:03:00;18.90;99.90
13426;DHT22;6785;57.918;12.530;2023-07-13T15:05:29;18.90;99.90
13426;DHT22;6785;57.918;12.530;2023-07-13T15:07:58;18.90;99.90
13426;DHT22;6785;57.918;12.530;2023-07-13T15:10:28;19.00;99.90
13426;DHT22;6785;57.918;12.530;2023-07-13T15:12:58;18.90;99.90
13426;DHT22;6785;57.918;12.530;2023-07-13T15:15:28;18.70;99.90
13426;DHT22;6785;57.918;12.530;2023-07-13T15:17:55;18.70;99.90
13426;DHT22;6785;57.918;12.530;2023-07-13T15:20:26;18.70;99.90
13426;DHT22;6785;57.918;12.530;2023-07-13T15:22:53;18.70;99.90
13426;DHT22;6785;57.918;12.530;2023-07-13T15:25:22;18.70;99.90
13426;DHT22;6785;57.918;12.530;2023-07-13T15:27:50;18.80;99.90
13426;DHT22;6785;57.918;12.530;2023-07-13T15:30:17;18.80;99.90
13426;DHT22;6785;57.918;12.530;2023-07-13T15:32:45;18.80;99.90
13426;DHT22;6785;57.918;12.530;2023-07-13T15:35:17;18.80;99.90
13426;DHT22;6785;57.918;12.530;2023-07-13T15:37:44;18.80;99.90
13426;DHT22;6785;57.918;12.530;2023-07-13T15:40:14;18.70;99.90